Terminal Aerodrome Forecast
Issued by NWS

Home | Current Version | Previous Version | Text Only | Print | Product List | Glossary On
Versions: 1 2 3 4 5 6 7 8 9 10 11 12 13 14 15 16 17 18 19 20 21 22 23 24 25
920
FTUS45 KREV 301737
TAFCXP
TAF
KCXP 301737Z 3018/3118 33020G35KT P6SM VCSH SCT030 OVC050
     FM301900 32018G30KT P6SM FEW035 BKN050
     FM310100 35013G24KT P6SM SCT050
     FM311000 35008KT P6SM SKC=

USA.gov is the U.S. government's official web portal to all federal, state and local government web resources and services.